Terminal Aerodrome Forecast
Issued by NWS Cleveland, OH

Home | Current Version | Previous Version | Graphics & Text | Print | Product List | Glossary On
Versions: 1 2 3 4 5 6 7 8 9 10 11 12 13 14 15 16 17 18 19 20 21 22 23 24 25 26 27 28 29 30
000
FTUS41 KCLE 260854 AAD
TAFCLE
TAF AMD
KCLE 260854Z 2609/2712 VRB06KT 5SM -TSRA BR BKN070CB OVC090
     FM261000 VRB06KT 6SM BR BKN060 OVC090
     FM261400 31012KT 6SM BR VCSH OVC015
     FM261900 01015KT 6SM BR OVC012
     FM270200 03010KT P6SM BKN020=

USA.gov is the U.S. government's official web portal to all federal, state and local government web resources and services.